sensor_id;sensor_type;location;lat;lon;timestamp;pressure;altitude;pressure_sealevel;temperature;humidity
69214;BME280;56325;47.030;18.518;2023-04-26T00:02:11;99841.16;;;9.52;75.56
69214;BME280;56325;47.030;18.518;2023-04-26T00:04:46;99839.97;;;9.44;76.17
69214;BME280;56325;47.030;18.518;2023-04-26T00:07:22;99840.69;;;9.53;75.67
69214;BME280;56325;47.030;18.518;2023-04-26T00:09:58;99825.94;;;9.51;75.96
69214;BME280;56325;47.030;18.518;2023-04-26T00:12:32;99835.09;;;9.39;76.59
69214;BME280;56325;47.030;18.518;2023-04-26T00:15:08;99840.28;;;9.46;76.06
69214;BME280;56325;47.030;18.518;2023-04-26T00:17:43;99827.16;;;9.50;75.90
69214;BME280;56325;47.030;18.518;2023-04-26T00:20:18;99829.75;;;9.35;76.42
69214;BME280;56325;47.030;18.518;2023-04-26T00:22:54;99848.19;;;9.53;75.82
69214;BME280;56325;47.030;18.518;2023-04-26T00:25:28;99839.38;;;9.40;75.94
69214;BME280;56325;47.030;18.518;2023-04-26T00:28:03;99852.34;;;9.21;76.30
69214;BME280;56325;47.030;18.518;2023-04-26T00:30:38;99856.91;;;9.33;76.03
69214;BME280;56325;47.030;18.518;2023-04-26T00:33:19;99850.97;;;9.16;76.50
69214;BME280;56325;47.030;18.518;2023-04-26T00:35:54;99853.53;;;9.38;75.80
69214;BME280;56325;47.030;18.518;2023-04-26T00:38:29;99861.63;;;9.14;76.79
69214;BME280;56325;47.030;18.518;2023-04-26T00:41:05;99863.91;;;9.16;76.47
69214;BME280;56325;47.030;18.518;2023-04-26T00:43:39;99864.06;;;9.12;76.45
69214;BME280;56325;47.030;18.518;2023-04-26T00:46:14;99857.38;;;9.13;76.44
69214;BME280;56325;47.030;18.518;2023-04-26T00:48:49;99864.69;;;8.89;77.13
69214;BME280;56325;47.030;18.518;2023-04-26T00:51:25;99870.31;;;8.95;77.27
69214;BME280;56325;47.030;18.518;2023-04-26T00:54:01;99870.16;;;9.07;76.71
69214;BME280;56325;47.030;18.518;2023-04-26T00:56:37;99877.19;;;8.99;76.82
69214;BME280;56325;47.030;18.518;2023-04-26T00:59:12;99881.91;;;9.08;76.26
69214;BME280;56325;47.030;18.518;2023-04-26T01:01:47;99884.34;;;8.97;76.70
69214;BME280;56325;47.030;18.518;2023-04-26T01:04:22;99878.09;;;8.96;76.98
69214;BME280;56325;47.030;18.518;2023-04-26T01:07:01;99885.72;;;9.01;76.67
69214;BME280;56325;47.030;18.518;2023-04-26T01:09:39;99887.37;;;8.90;76.89
69214;BME280;56325;47.030;18.518;2023-04-26T01:12:15;99890.41;;;8.64;77.86
69214;BME280;56325;47.030;18.518;2023-04-26T01:14:50;99893.13;;;8.73;77.54
69214;BME280;56325;47.030;18.518;2023-04-26T01:17:27;99893.00;;;8.77;77.23
69214;BME280;56325;47.030;18.518;2023-04-26T01:20:02;99885.84;;;8.79;76.79
69214;BME280;56325;47.030;18.518;2023-04-26T01:22:39;99892.38;;;8.73;77.11
69214;BME280;56325;47.030;18.518;2023-04-26T01:25:15;99898.00;;;8.78;76.74
69214;BME280;56325;47.030;18.518;2023-04-26T01:27:50;99888.41;;;8.74;76.86
69214;BME280;56325;47.030;18.518;2023-04-26T01:30:24;99879.59;;;8.79;76.44
69214;BME280;56325;47.030;18.518;2023-04-26T01:32:59;99891.31;;;8.61;76.99
69214;BME280;56325;47.030;18.518;2023-04-26T01:35:34;99894.66;;;8.56;77.24
69214;BME280;56325;47.030;18.518;2023-04-26T01:38:10;99903.94;;;8.68;76.65
69214;BME280;56325;47.030;18.518;2023-04-26T01:40:46;99897.56;;;8.62;76.92
69214;BME280;56325;47.030;18.518;2023-04-26T01:43:21;99913.38;;;8.58;77.01
69214;BME280;56325;47.030;18.518;2023-04-26T01:45:55;99912.78;;;8.72;76.64
69214;BME280;56325;47.030;18.518;2023-04-26T01:48:33;99918.84;;;8.58;76.91
69214;BME280;56325;47.030;18.518;2023-04-26T01:51:08;99926.94;;;8.70;76.45
69214;BME280;56325;47.030;18.518;2023-04-26T01:53:45;99924.97;;;8.62;76.49
69214;BME280;56325;47.030;18.518;2023-04-26T01:56:19;99933.50;;;8.64;76.59
69214;BME280;56325;47.030;18.518;2023-04-26T01:58:54;99931.50;;;8.55;76.79
69214;BME280;56325;47.030;18.518;2023-04-26T02:01:29;99940.47;;;8.56;76.70
69214;BME280;56325;47.030;18.518;2023-04-26T02:04:04;99944.75;;;8.57;76.52
69214;BME280;56325;47.030;18.518;2023-04-26T02:06:39;99945.69;;;8.63;76.23
69214;BME280;56325;47.030;18.518;2023-04-26T02:09:16;99947.94;;;8.55;76.24
69214;BME280;56325;47.030;18.518;2023-04-26T02:11:51;99947.94;;;8.55;75.54
69214;BME280;56325;47.030;18.518;2023-04-26T02:14:25;99957.22;;;8.58;75.63
69214;BME280;56325;47.030;18.518;2023-04-26T02:17:00;99955.69;;;8.57;75.26
69214;BME280;56325;47.030;18.518;2023-04-26T02:19:35;99955.41;;;8.64;74.57
69214;BME280;56325;47.030;18.518;2023-04-26T02:22:09;99963.13;;;8.47;75.05
69214;BME280;56325;47.030;18.518;2023-04-26T02:24:48;99956.84;;;8.37;75.27
69214;BME280;56325;47.030;18.518;2023-04-26T02:27:23;99962.03;;;8.44;74.90
69214;BME280;56325;47.030;18.518;2023-04-26T02:30:03;99971.00;;;8.36;74.83
69214;BME280;56325;47.030;18.518;2023-04-26T02:32:38;99969.53;;;8.22;75.34
69214;BME280;56325;47.030;18.518;2023-04-26T02:35:13;99977.69;;;8.13;75.46
69214;BME280;56325;47.030;18.518;2023-04-26T02:37:48;99976.78;;;8.16;74.96
69214;BME280;56325;47.030;18.518;2023-04-26T02:40:25;99984.31;;;8.03;75.32
69214;BME280;56325;47.030;18.518;2023-04-26T02:43:00;99979.91;;;8.05;75.64
69214;BME280;56325;47.030;18.518;2023-04-26T02:45:40;99988.34;;;7.89;75.53
69214;BME280;56325;47.030;18.518;2023-04-26T02:48:16;99983.06;;;7.95;75.13
69214;BME280;56325;47.030;18.518;2023-04-26T02:50:51;99979.25;;;7.70;75.77
69214;BME280;56325;47.030;18.518;2023-04-26T02:53:25;99989.41;;;7.92;74.91
69214;BME280;56325;47.030;18.518;2023-04-26T02:56:02;99995.66;;;7.92;74.70
69214;BME280;56325;47.030;18.518;2023-04-26T02:58:36;99985.72;;;7.85;74.62
69214;BME280;56325;47.030;18.518;2023-04-26T04:37:55;100105.56;;;8.69;71.57
69214;BME280;56325;47.030;18.518;2023-04-26T04:40:31;100105.56;;;8.69;71.57
69214;BME280;56325;47.030;18.518;2023-04-26T04:43:06;100113.81;;;7.90;72.17
69214;BME280;56325;47.030;18.518;2023-04-26T04:45:41;100108.84;;;7.76;72.54
69214;BME280;56325;47.030;18.518;2023-04-26T04:48:16;100114.25;;;7.67;73.11
69214;BME280;56325;47.030;18.518;2023-04-26T04:50:51;100122.09;;;7.78;73.00
69214;BME280;56325;47.030;18.518;2023-04-26T04:53:27;100125.78;;;7.84;72.14
69214;BME280;56325;47.030;18.518;2023-04-26T04:56:02;100125.28;;;7.76;72.33
69214;BME280;56325;47.030;18.518;2023-04-26T04:58:36;100124.53;;;7.98;72.03
69214;BME280;56325;47.030;18.518;2023-04-26T05:01:11;100138.91;;;7.89;72.08
69214;BME280;56325;47.030;18.518;2023-04-26T05:03:46;100136.34;;;7.73;72.52
69214;BME280;56325;47.030;18.518;2023-04-26T05:06:21;100140.66;;;7.96;71.94
69214;BME280;56325;47.030;18.518;2023-04-26T05:08:57;100136.72;;;7.84;71.87
69214;BME280;56325;47.030;18.518;2023-04-26T05:11:33;100135.34;;;7.79;71.75
69214;BME280;56325;47.030;18.518;2023-04-26T05:14:08;100141.69;;;7.76;72.28
69214;BME280;56325;47.030;18.518;2023-04-26T05:16:43;100147.50;;;7.78;71.81
69214;BME280;56325;47.030;18.518;2023-04-26T05:19:19;100149.50;;;8.00;71.62
69214;BME280;56325;47.030;18.518;2023-04-26T05:21:55;100153.94;;;8.19;71.28
69214;BME280;56325;47.030;18.518;2023-04-26T05:24:31;100152.87;;;8.04;71.22
69214;BME280;56325;47.030;18.518;2023-04-26T05:27:06;100156.38;;;8.04;70.73
69214;BME280;56325;47.030;18.518;2023-04-26T05:29:42;100152.66;;;8.11;71.20
69214;BME280;56325;47.030;18.518;2023-04-26T05:32:17;100155.63;;;9.71;87.80
69214;BME280;56325;47.030;18.518;2023-04-26T05:34:51;100140.00;;;10.96;83.15
69214;BME280;56325;47.030;18.518;2023-04-26T05:37:26;100150.38;;;9.37;68.53
69214;BME280;56325;47.030;18.518;2023-04-26T05:40:03;100158.84;;;8.90;68.50
69214;BME280;56325;47.030;18.518;2023-04-26T05:42:39;100166.97;;;9.02;68.31
69214;BME280;56325;47.030;18.518;2023-04-26T05:45:14;100160.38;;;8.69;69.19
69214;BME280;56325;47.030;18.518;2023-04-26T05:47:49;100157.34;;;8.67;69.92
69214;BME280;56325;47.030;18.518;2023-04-26T05:50:24;100156.50;;;8.79;69.72
69214;BME280;56325;47.030;18.518;2023-04-26T05:52:59;100164.09;;;8.75;69.00
69214;BME280;56325;47.030;18.518;2023-04-26T05:55:35;100163.06;;;8.81;68.98
69214;BME280;56325;47.030;18.518;2023-04-26T05:58:10;100169.31;;;9.13;68.07
69214;BME280;56325;47.030;18.518;2023-04-26T06:03:11;100174.41;;;9.82;66.48
69214;BME280;56325;47.030;18.518;2023-04-26T06:05:47;100174.41;;;9.82;66.48
69214;BME280;56325;47.030;18.518;2023-04-26T06:08:22;100178.03;;;9.20;66.98
69214;BME280;56325;47.030;18.518;2023-04-26T06:10:58;100185.19;;;9.18;67.28
69214;BME280;56325;47.030;18.518;2023-04-26T06:13:33;100186.88;;;9.15;67.71
69214;BME280;56325;47.030;18.518;2023-04-26T06:16:08;100182.28;;;9.52;67.19
69214;BME280;56325;47.030;18.518;2023-04-26T06:18:43;100190.69;;;9.67;66.68
69214;BME280;56325;47.030;18.518;2023-04-26T06:21:18;100186.56;;;9.63;66.22
69214;BME280;56325;47.030;18.518;2023-04-26T06:23:53;100184.50;;;9.85;66.18
69214;BME280;56325;47.030;18.518;2023-04-26T06:26:31;100189.56;;;10.05;64.25
69214;BME280;56325;47.030;18.518;2023-04-26T06:29:06;100194.97;;;10.36;68.36
69214;BME280;56325;47.030;18.518;2023-04-26T06:31:41;100187.34;;;11.09;65.70
69214;BME280;56325;47.030;18.518;2023-04-26T06:34:18;100193.13;;;11.21;62.25
69214;BME280;56325;47.030;18.518;2023-04-26T06:36:53;100196.75;;;10.48;62.60
69214;BME280;56325;47.030;18.518;2023-04-26T06:39:27;100196.91;;;10.17;61.48
69214;BME280;56325;47.030;18.518;2023-04-26T06:42:02;100196.28;;;10.13;63.08
69214;BME280;56325;47.030;18.518;2023-04-26T06:44:41;100205.91;;;10.17;62.72
69214;BME280;56325;47.030;18.518;2023-04-26T06:47:16;100214.66;;;10.25;62.36
69214;BME280;56325;47.030;18.518;2023-04-26T06:49:52;100219.94;;;10.10;62.72
69214;BME280;56325;47.030;18.518;2023-04-26T06:52:27;100211.00;;;10.37;62.62
69214;BME280;56325;47.030;18.518;2023-04-26T06:55:02;100232.81;;;10.41;62.18
69214;BME280;56325;47.030;18.518;2023-04-26T06:57:38;100221.53;;;10.30;61.58
69214;BME280;56325;47.030;18.518;2023-04-26T07:00:13;100221.38;;;10.33;60.71
69214;BME280;56325;47.030;18.518;2023-04-26T07:02:48;100222.28;;;10.30;60.74
69214;BME280;56325;47.030;18.518;2023-04-26T07:05:24;100217.84;;;10.24;61.04
69214;BME280;56325;47.030;18.518;2023-04-26T07:07:59;100222.12;;;10.34;60.05
69214;BME280;56325;47.030;18.518;2023-04-26T07:10:33;100215.56;;;10.40;60.27
69214;BME280;56325;47.030;18.518;2023-04-26T07:13:10;100215.69;;;10.55;59.79
69214;BME280;56325;47.030;18.518;2023-04-26T07:15:44;100219.69;;;10.63;59.55
69214;BME280;56325;47.030;18.518;2023-04-26T07:18:19;100217.38;;;10.52;58.76
69214;BME280;56325;47.030;18.518;2023-04-26T07:20:55;100217.53;;;10.67;58.43
69214;BME280;56325;47.030;18.518;2023-04-26T07:23:30;100226.25;;;10.66;58.21
69214;BME280;56325;47.030;18.518;2023-04-26T07:26:04;100221.19;;;10.82;55.83
69214;BME280;56325;47.030;18.518;2023-04-26T07:28:39;100225.00;;;10.76;54.73
69214;BME280;56325;47.030;18.518;2023-04-26T07:31:14;100235.09;;;10.61;53.23
69214;BME280;56325;47.030;18.518;2023-04-26T07:33:48;100236.03;;;10.58;52.97
69214;BME280;56325;47.030;18.518;2023-04-26T07:36:25;100230.81;;;10.69;52.18
69214;BME280;56325;47.030;18.518;2023-04-26T07:39:00;100235.38;;;10.90;50.59
69214;BME280;56325;47.030;18.518;2023-04-26T07:41:35;100229.41;;;11.01;50.55
69214;BME280;56325;47.030;18.518;2023-04-26T07:44:09;100227.28;;;11.47;50.13
69214;BME280;56325;47.030;18.518;2023-04-26T07:46:44;100247.28;;;11.14;48.11
69214;BME280;56325;47.030;18.518;2023-04-26T07:49:19;100242.38;;;11.09;48.04
69214;BME280;56325;47.030;18.518;2023-04-26T07:51:55;100242.66;;;11.21;47.13
69214;BME280;56325;47.030;18.518;2023-04-26T07:54:31;100247.19;;;11.33;47.27
69214;BME280;56325;47.030;18.518;2023-04-26T07:57:05;100249.63;;;11.40;45.57
69214;BME280;56325;47.030;18.518;2023-04-26T07:59:40;100236.53;;;11.68;46.09
69214;BME280;56325;47.030;18.518;2023-04-26T08:02:14;100237.94;;;11.54;44.76
69214;BME280;56325;47.030;18.518;2023-04-26T08:04:51;100251.06;;;11.68;44.80
69214;BME280;56325;47.030;18.518;2023-04-26T08:07:28;100255.34;;;11.69;44.86
69214;BME280;56325;47.030;18.518;2023-04-26T08:10:03;100257.84;;;12.15;45.33
69214;BME280;56325;47.030;18.518;2023-04-26T08:12:38;100263.66;;;12.17;44.86
69214;BME280;56325;47.030;18.518;2023-04-26T08:15:13;100256.63;;;11.92;44.62
69214;BME280;56325;47.030;18.518;2023-04-26T08:17:47;100263.13;;;11.71;45.00
69214;BME280;56325;47.030;18.518;2023-04-26T08:20:25;100254.69;;;11.84;44.91
69214;BME280;56325;47.030;18.518;2023-04-26T08:23:01;100262.25;;;12.45;46.69
69214;BME280;56325;47.030;18.518;2023-04-26T08:25:36;100264.13;;;12.39;43.29
69214;BME280;56325;47.030;18.518;2023-04-26T08:28:10;100263.31;;;12.48;44.36
69214;BME280;56325;47.030;18.518;2023-04-26T08:30:46;100262.81;;;12.11;44.39
69214;BME280;56325;47.030;18.518;2023-04-26T08:33:21;100268.88;;;12.63;43.58
69214;BME280;56325;47.030;18.518;2023-04-26T08:35:58;100262.09;;;12.25;45.19
69214;BME280;56325;47.030;18.518;2023-04-26T08:38:34;100262.25;;;12.45;44.81
69214;BME280;56325;47.030;18.518;2023-04-26T08:41:12;100259.09;;;12.38;43.16
69214;BME280;56325;47.030;18.518;2023-04-26T08:43:47;100265.91;;;12.28;43.00
69214;BME280;56325;47.030;18.518;2023-04-26T08:46:24;100261.72;;;12.56;43.24
69214;BME280;56325;47.030;18.518;2023-04-26T08:49:07;100278.28;;;12.32;42.21
69214;BME280;56325;47.030;18.518;2023-04-26T08:51:45;100268.50;;;12.07;43.13
69214;BME280;56325;47.030;18.518;2023-04-26T08:54:22;100276.81;;;12.22;43.03
69214;BME280;56325;47.030;18.518;2023-04-26T08:56:58;100274.81;;;12.23;43.13
69214;BME280;56325;47.030;18.518;2023-04-26T08:59:35;100267.13;;;12.51;42.68
69214;BME280;56325;47.030;18.518;2023-04-26T09:02:13;100278.63;;;12.49;42.68
69214;BME280;56325;47.030;18.518;2023-04-26T09:04:50;100263.56;;;12.35;43.50
69214;BME280;56325;47.030;18.518;2023-04-26T09:07:30;100271.28;;;12.46;43.18
69214;BME280;56325;47.030;18.518;2023-04-26T09:10:08;100282.50;;;12.81;42.80
69214;BME280;56325;47.030;18.518;2023-04-26T09:12:43;100277.84;;;12.72;40.82
69214;BME280;56325;47.030;18.518;2023-04-26T09:15:19;100277.28;;;12.83;42.04
69214;BME280;56325;47.030;18.518;2023-04-26T09:17:55;100277.28;;;13.12;44.08
69214;BME280;56325;47.030;18.518;2023-04-26T09:20:30;100264.47;;;13.89;50.94
69214;BME280;56325;47.030;18.518;2023-04-26T09:23:06;100259.69;;;13.89;42.29
69214;BME280;56325;47.030;18.518;2023-04-26T09:25:43;100264.47;;;13.89;40.11
69214;BME280;56325;47.030;18.518;2023-04-26T09:28:19;100266.09;;;13.45;39.77
69214;BME280;56325;47.030;18.518;2023-04-26T09:30:54;100258.00;;;13.42;39.84
69214;BME280;56325;47.030;18.518;2023-04-26T09:33:29;100266.56;;;13.94;47.91
69214;BME280;56325;47.030;18.518;2023-04-26T09:36:12;100270.66;;;13.63;41.38
69214;BME280;56325;47.030;18.518;2023-04-26T09:38:47;100275.53;;;13.39;42.06
69214;BME280;56325;47.030;18.518;2023-04-26T09:41:23;100270.66;;;13.34;40.28
69214;BME280;56325;47.030;18.518;2023-04-26T09:44:03;100252.66;;;13.24;40.30
69214;BME280;56325;47.030;18.518;2023-04-26T09:46:38;100267.03;;;13.57;38.24
69214;BME280;56325;47.030;18.518;2023-04-26T09:49:14;100266.94;;;13.87;37.60
69214;BME280;56325;47.030;18.518;2023-04-26T09:51:59;100260.72;;;13.71;36.98
69214;BME280;56325;47.030;18.518;2023-04-26T09:54:40;100273.03;;;13.41;37.90
69214;BME280;56325;47.030;18.518;2023-04-26T09:57:17;100269.31;;;13.59;37.89
69214;BME280;56325;47.030;18.518;2023-04-26T09:59:53;100266.94;;;13.87;36.84
69214;BME280;56325;47.030;18.518;2023-04-26T21:12:38;100556.38;;;10.93;50.69
69214;BME280;56325;47.030;18.518;2023-04-26T21:15:14;100556.38;;;10.93;50.69
69214;BME280;56325;47.030;18.518;2023-04-26T21:17:48;100559.84;;;10.23;51.75
69214;BME280;56325;47.030;18.518;2023-04-26T21:20:23;100571.81;;;9.60;52.43
69214;BME280;56325;47.030;18.518;2023-04-26T21:22:57;100550.31;;;9.24;52.92
69214;BME280;56325;47.030;18.518;2023-04-26T21:25:32;100559.09;;;9.18;53.61
69214;BME280;56325;47.030;18.518;2023-04-26T21:28:08;100561.75;;;8.84;53.30
69214;BME280;56325;47.030;18.518;2023-04-26T21:30:43;100566.25;;;8.91;52.56
69214;BME280;56325;47.030;18.518;2023-04-26T21:33:17;100563.16;;;9.14;53.16
69214;BME280;56325;47.030;18.518;2023-04-26T21:35:52;100574.12;;;8.88;52.37
69214;BME280;56325;47.030;18.518;2023-04-26T21:38:27;100570.94;;;9.03;51.81
69214;BME280;56325;47.030;18.518;2023-04-26T21:41:02;100568.44;;;9.08;51.82
69214;BME280;56325;47.030;18.518;2023-04-26T21:43:38;100570.19;;;9.15;50.61
69214;BME280;56325;47.030;18.518;2023-04-26T21:46:12;100578.63;;;9.08;50.52
69214;BME280;56325;47.030;18.518;2023-04-26T21:48:47;100578.84;;;9.13;50.00
69214;BME280;56325;47.030;18.518;2023-04-26T21:51:22;100578.97;;;9.10;50.87
69214;BME280;56325;47.030;18.518;2023-04-26T21:53:56;100578.63;;;8.95;52.03
69214;BME280;56325;47.030;18.518;2023-04-26T21:56:31;100590.13;;;8.77;52.71
69214;BME280;56325;47.030;18.518;2023-04-26T21:59:07;100586.75;;;8.73;53.21
69214;BME280;56325;47.030;18.518;2023-04-26T22:03:28;100581.88;;;9.41;50.86
69214;BME280;56325;47.030;18.518;2023-04-26T22:06:04;100581.88;;;9.41;50.86
69214;BME280;56325;47.030;18.518;2023-04-26T22:08:39;100590.59;;;8.88;50.74
69214;BME280;56325;47.030;18.518;2023-04-26T22:11:14;100591.34;;;8.64;50.09
69214;BME280;56325;47.030;18.518;2023-04-26T22:13:49;100602.19;;;8.54;51.02
69214;BME280;56325;47.030;18.518;2023-04-26T22:16:23;100606.47;;;8.56;51.29
69214;BME280;56325;47.030;18.518;2023-04-26T22:18:59;100607.03;;;8.63;51.85
69214;BME280;56325;47.030;18.518;2023-04-26T22:21:34;100614.81;;;8.77;52.09
69214;BME280;56325;47.030;18.518;2023-04-26T22:24:08;100625.41;;;8.21;54.65
69214;BME280;56325;47.030;18.518;2023-04-26T22:26:43;100624.19;;;7.64;57.02
69214;BME280;56325;47.030;18.518;2023-04-26T22:29:20;100626.31;;;7.40;57.94
69214;BME280;56325;47.030;18.518;2023-04-26T22:31:55;100634.78;;;7.30;58.14
69214;BME280;56325;47.030;18.518;2023-04-26T22:34:30;100630.47;;;7.12;58.20
69214;BME280;56325;47.030;18.518;2023-04-26T22:37:05;100637.59;;;7.42;57.17
69214;BME280;56325;47.030;18.518;2023-04-26T22:39:52;100641.59;;;7.21;57.82
69214;BME280;56325;47.030;18.518;2023-04-26T22:42:28;100643.81;;;7.10;58.53
69214;BME280;56325;47.030;18.518;2023-04-26T22:45:03;100632.94;;;7.07;59.04
69214;BME280;56325;47.030;18.518;2023-04-26T22:47:38;100636.69;;;6.97;59.61
69214;BME280;56325;47.030;18.518;2023-04-26T22:50:14;100643.19;;;7.03;59.11
69214;BME280;56325;47.030;18.518;2023-04-26T22:52:49;100642.44;;;7.18;58.51
69214;BME280;56325;47.030;18.518;2023-04-26T22:55:24;100650.28;;;7.00;58.38
69214;BME280;56325;47.030;18.518;2023-04-26T22:57:59;100654.81;;;7.07;57.96
69214;BME280;56325;47.030;18.518;2023-04-26T23:00:33;100654.47;;;6.88;58.21
69214;BME280;56325;47.030;18.518;2023-04-26T23:03:08;100650.84;;;6.75;58.42
69214;BME280;56325;47.030;18.518;2023-04-26T23:05:44;100656.09;;;6.66;59.35
69214;BME280;56325;47.030;18.518;2023-04-26T23:08:19;100652.16;;;6.87;59.61
69214;BME280;56325;47.030;18.518;2023-04-26T23:10:53;100654.41;;;7.08;58.37
69214;BME280;56325;47.030;18.518;2023-04-26T23:13:28;100648.25;;;7.20;57.46
69214;BME280;56325;47.030;18.518;2023-04-26T23:16:03;100664.84;;;7.13;57.78
69214;BME280;56325;47.030;18.518;2023-04-26T23:18:38;100666.38;;;7.14;57.06
69214;BME280;56325;47.030;18.518;2023-04-26T23:21:15;100664.06;;;7.13;57.37
69214;BME280;56325;47.030;18.518;2023-04-26T23:23:50;100659.28;;;7.17;56.99
69214;BME280;56325;47.030;18.518;2023-04-26T23:26:24;100669.38;;;7.20;56.41
69214;BME280;56325;47.030;18.518;2023-04-26T23:28:59;100664.94;;;7.26;56.67
69214;BME280;56325;47.030;18.518;2023-04-26T23:31:34;100673.75;;;7.34;56.51
69214;BME280;56325;47.030;18.518;2023-04-26T23:34:09;100670.00;;;7.44;56.29
69214;BME280;56325;47.030;18.518;2023-04-26T23:36:44;100665.22;;;7.48;54.56
69214;BME280;56325;47.030;18.518;2023-04-26T23:39:19;100663.84;;;7.40;55.76
69214;BME280;56325;47.030;18.518;2023-04-26T23:41:54;100667.50;;;7.17;57.55
69214;BME280;56325;47.030;18.518;2023-04-26T23:44:28;100660.16;;;7.30;56.45
69214;BME280;56325;47.030;18.518;2023-04-26T23:47:03;100674.53;;;7.50;55.26
69214;BME280;56325;47.030;18.518;2023-04-26T23:49:37;100655.97;;;7.42;55.36
69214;BME280;56325;47.030;18.518;2023-04-26T23:52:13;100647.34;;;7.60;54.76
69214;BME280;56325;47.030;18.518;2023-04-26T23:54:48;100658.22;;;7.63;55.35
69214;BME280;56325;47.030;18.518;2023-04-26T23:57:22;100664.72;;;7.69;54.91
69214;BME280;56325;47.030;18.518;2023-04-26T23:59:57;100666.00;;;7.65;55.32
